createdAt,value
2018-06-15T00:00:17.169Z,90
2018-06-15T00:01:21.083Z,91
2018-06-15T00:02:23.779Z,91
2018-06-15T00:03:26.016Z,91
2018-06-15T00:04:29.496Z,91
2018-06-15T00:05:31.624Z,92
2018-06-15T00:06:34.468Z,91
2018-06-15T00:07:36.865Z,90
2018-06-15T00:08:39.225Z,91
2018-06-15T00:09:41.429Z,92
2018-06-15T00:10:44.117Z,90
2018-06-15T00:11:46.921Z,90
2018-06-15T00:12:49.838Z,90
2018-06-15T00:13:52.562Z,91
2018-06-15T00:14:55.157Z,90
2018-06-15T00:15:57.676Z,90
2018-06-15T00:17:01.047Z,90
2018-06-15T00:18:03.270Z,90
2018-06-15T00:19:06.607Z,90
2018-06-15T00:20:09.320Z,90
2018-06-15T00:21:11.775Z,90
2018-06-15T00:22:14.890Z,91
2018-06-15T00:23:17.538Z,91
2018-06-15T00:24:21.253Z,91
2018-06-15T00:25:23.844Z,91
2018-06-15T00:26:26.473Z,90
2018-06-15T00:27:30.215Z,90
2018-06-15T00:28:33.266Z,90
2018-06-15T00:29:36.118Z,90
2018-06-15T00:30:39.140Z,91
2018-06-15T00:31:41.597Z,92
2018-06-15T00:32:43.658Z,92
2018-06-15T00:33:45.881Z,92
2018-06-15T00:34:47.927Z,92
2018-06-15T00:35:50.030Z,92
2018-06-15T00:36:52.135Z,91
2018-06-15T00:37:54.644Z,91
2018-06-15T00:38:56.729Z,91
2018-06-15T00:39:59.305Z,91
2018-06-15T00:41:01.314Z,91
2018-06-15T00:42:04.005Z,90
2018-06-15T00:43:06.136Z,92
2018-06-15T00:44:08.134Z,91
2018-06-15T00:45:10.177Z,92
2018-06-15T00:46:12.464Z,92
2018-06-15T00:47:14.573Z,92
2018-06-15T00:48:16.650Z,92
2018-06-15T00:49:18.710Z,91
2018-06-15T00:50:20.699Z,92
2018-06-15T00:51:22.926Z,92
2018-06-15T00:52:25.009Z,92
2018-06-15T00:53:27.060Z,92
2018-06-15T00:54:29.412Z,93
2018-06-15T00:55:31.443Z,93
2018-06-15T00:56:33.489Z,91
2018-06-15T00:57:36.110Z,91
2018-06-15T00:58:38.142Z,91
2018-06-15T00:59:40.146Z,91
2018-06-15T01:00:42.208Z,91
2018-06-15T01:01:44.519Z,91
2018-06-15T01:02:46.529Z,91
2018-06-15T01:03:48.820Z,92
2018-06-15T01:04:51.217Z,91
2018-06-15T01:05:53.231Z,90
2018-06-15T01:06:56.069Z,90
2018-06-15T01:07:58.454Z,91
2018-06-15T01:09:00.914Z,91
2018-06-15T01:10:03.390Z,91
2018-06-15T01:11:06.277Z,91
2018-06-15T01:12:08.658Z,91
2018-06-15T01:13:12.186Z,92
2018-06-15T01:14:14.923Z,91
2018-06-15T01:15:17.881Z,91
2018-06-15T01:16:21.213Z,91
2018-06-15T01:17:23.720Z,92
2018-06-15T01:18:27.195Z,92
2018-06-15T01:19:30.055Z,92
2018-06-15T01:20:33.232Z,91
2018-06-15T01:21:35.867Z,92
2018-06-15T01:22:38.177Z,92
2018-06-15T01:23:40.328Z,92
2018-06-15T01:24:43.759Z,92
2018-06-15T01:25:46.849Z,92
2018-06-15T01:26:49.091Z,91
2018-06-15T01:27:51.255Z,92
2018-06-15T01:28:53.469Z,92
2018-06-15T01:29:55.532Z,91
2018-06-15T01:30:58.100Z,92
2018-06-15T01:32:00.860Z,92
2018-06-15T01:33:03.452Z,92
2018-06-15T01:34:06.494Z,91
2018-06-15T01:35:09.375Z,92
2018-06-15T01:36:12.658Z,92
2018-06-15T01:37:14.862Z,92
2018-06-15T01:38:17.558Z,92
2018-06-15T01:39:20.392Z,92
2018-06-15T01:40:22.815Z,92
2018-06-15T01:41:25.925Z,92
2018-06-15T01:42:28.197Z,93
2018-06-15T01:43:30.750Z,92
2018-06-15T01:44:33.242Z,92
2018-06-15T01:45:36.231Z,92
2018-06-15T01:46:38.728Z,92
2018-06-15T01:47:41.357Z,92
2018-06-15T01:48:44.268Z,92
2018-06-15T01:49:46.931Z,93
2018-06-15T01:50:49.342Z,92
2018-06-15T01:51:52.289Z,92
2018-06-15T01:52:54.953Z,92
2018-06-15T01:53:58.046Z,93
2018-06-15T01:55:00.702Z,93
2018-06-15T01:56:03.319Z,93
2018-06-15T01:57:05.910Z,93
2018-06-15T01:58:08.223Z,93
2018-06-15T01:59:10.213Z,93
2018-06-15T02:00:12.230Z,93
2018-06-15T02:01:14.235Z,93
2018-06-15T02:02:16.223Z,93
2018-06-15T02:03:18.226Z,94
2018-06-15T02:04:20.224Z,93
2018-06-15T02:05:22.227Z,94
2018-06-15T02:06:24.235Z,93
2018-06-15T02:07:26.239Z,93
2018-06-15T02:08:28.253Z,93
2018-06-15T02:09:30.304Z,93
2018-06-15T02:10:32.347Z,93
2018-06-15T02:11:34.340Z,94
2018-06-15T02:12:36.365Z,94
2018-06-15T02:13:38.930Z,93
2018-06-15T02:14:41.142Z,93
2018-06-15T02:15:43.848Z,93
2018-06-15T02:16:46.557Z,93
2018-06-15T02:17:49.449Z,93
2018-06-15T02:18:51.835Z,93
2018-06-15T02:19:54.087Z,94
2018-06-15T02:20:56.683Z,94
2018-06-15T02:21:59.762Z,94
2018-06-15T02:23:02.196Z,93
2018-06-15T02:24:04.863Z,93
2018-06-15T02:25:06.874Z,93
2018-06-15T02:26:08.873Z,93
2018-06-15T02:27:10.882Z,93
2018-06-15T02:28:13.163Z,94
2018-06-15T02:29:15.448Z,94
2018-06-15T02:30:17.835Z,93
2018-06-15T02:31:20.120Z,93
2018-06-15T02:32:23.201Z,94
2018-06-15T02:33:26.977Z,93
2018-06-15T02:34:30.753Z,94
2018-06-15T02:35:34.472Z,94
2018-06-15T02:36:37.665Z,94
2018-06-15T02:37:40.923Z,94
2018-06-15T02:38:44.564Z,94
2018-06-15T02:39:46.861Z,94
2018-06-15T02:40:50.026Z,93
2018-06-15T02:41:54.378Z,94
2018-06-15T02:42:58.180Z,94
2018-06-15T02:44:01.024Z,94
2018-06-15T02:45:03.276Z,93
2018-06-15T02:46:06.343Z,93
2018-06-15T02:47:08.525Z,94
2018-06-15T02:48:12.047Z,94
2018-06-15T02:49:14.798Z,94
2018-06-15T02:50:17.149Z,94
2018-06-15T02:51:20.047Z,94
2018-06-15T02:52:22.558Z,94
2018-06-15T02:53:24.862Z,94
2018-06-15T02:54:27.160Z,94
2018-06-15T02:55:29.446Z,94
2018-06-15T02:56:31.466Z,94
2018-06-15T02:57:33.487Z,94
2018-06-15T02:58:36.202Z,94
2018-06-15T02:59:38.194Z,94
2018-06-15T03:00:40.181Z,94
2018-06-15T03:01:42.464Z,94
2018-06-15T03:02:44.777Z,94
2018-06-15T03:03:47.111Z,94
2018-06-15T03:04:49.468Z,94
2018-06-15T03:05:52.536Z,94
2018-06-15T03:06:55.435Z,94
2018-06-15T03:07:58.577Z,94
2018-06-15T03:09:01.375Z,94
2018-06-15T03:10:05.095Z,94
2018-06-15T03:11:07.354Z,94
2018-06-15T03:12:09.529Z,94
2018-06-15T03:13:11.606Z,94
2018-06-15T03:14:14.240Z,95
2018-06-15T03:15:16.767Z,95
2018-06-15T03:16:18.976Z,95
2018-06-15T03:17:21.286Z,95
2018-06-15T03:18:23.383Z,94
2018-06-15T03:19:25.420Z,95
2018-06-15T03:20:27.527Z,95
2018-06-15T03:21:29.908Z,95
2018-06-15T03:22:31.964Z,95
2018-06-15T03:23:33.968Z,95
2018-06-15T03:24:36.036Z,95
2018-06-15T03:25:38.161Z,95
2018-06-15T03:26:40.176Z,95
2018-06-15T03:27:42.584Z,95
2018-06-15T03:28:44.706Z,95
2018-06-15T03:29:46.762Z,95
2018-06-15T03:30:49.214Z,95
2018-06-15T03:31:51.538Z,95
2018-06-15T03:32:53.878Z,95
2018-06-15T03:33:55.961Z,95
2018-06-15T03:34:57.959Z,95
2018-06-15T03:35:59.965Z,95
2018-06-15T03:37:02.627Z,95
2018-06-15T03:38:04.656Z,95
2018-06-15T03:39:06.662Z,95
2018-06-15T03:40:08.660Z,95
2018-06-15T03:41:10.939Z,95
2018-06-15T03:42:12.956Z,95
2018-06-15T03:43:14.961Z,95
2018-06-15T03:44:17.470Z,95
2018-06-15T03:45:19.476Z,95
2018-06-15T03:46:21.504Z,94
2018-06-15T03:47:24.541Z,94
2018-06-15T03:48:27.250Z,94
2018-06-15T03:49:29.644Z,93
2018-06-15T03:50:31.639Z,93
2018-06-15T03:51:33.658Z,94
2018-06-15T03:52:35.726Z,93
2018-06-15T03:53:37.740Z,94
2018-06-15T03:54:39.863Z,94
2018-06-15T03:55:41.902Z,94
2018-06-15T03:56:43.974Z,94
2018-06-15T03:57:45.985Z,94
2018-06-15T03:58:48.425Z,94
2018-06-15T03:59:50.397Z,94
2018-06-15T04:00:52.379Z,94
2018-06-15T04:01:54.387Z,94
2018-06-15T04:02:56.384Z,93
2018-06-15T04:03:58.399Z,94
2018-06-15T04:05:00.793Z,94
2018-06-15T04:06:02.848Z,93
2018-06-15T04:07:04.876Z,93
2018-06-15T04:08:06.928Z,93
2018-06-15T04:09:08.939Z,93
2018-06-15T04:10:10.934Z,92
2018-06-15T04:11:13.263Z,92
2018-06-15T04:12:15.486Z,93
2018-06-15T04:13:17.650Z,92
2018-06-15T04:14:20.588Z,93
2018-06-15T04:15:23.112Z,94
2018-06-15T04:16:25.806Z,93
2018-06-15T04:17:27.875Z,93
2018-06-15T04:18:30.132Z,93
2018-06-15T04:19:32.323Z,93
2018-06-15T04:20:34.363Z,93
2018-06-15T04:21:36.555Z,93
2018-06-15T04:22:38.572Z,93
2018-06-15T04:23:40.656Z,94
2018-06-15T04:24:42.703Z,94
2018-06-15T04:25:45.064Z,93
2018-06-15T04:26:47.564Z,93
2018-06-15T04:27:49.799Z,93
2018-06-15T04:28:52.725Z,92
2018-06-15T04:29:54.736Z,93
2018-06-15T04:30:56.790Z,93
2018-06-15T04:31:59.036Z,92
2018-06-15T04:33:01.711Z,92
2018-06-15T04:34:04.105Z,92
2018-06-15T04:35:06.506Z,93
2018-06-15T04:36:08.939Z,92
2018-06-15T04:37:11.523Z,92
2018-06-15T04:38:14.221Z,92
2018-06-15T04:39:16.792Z,92
2018-06-15T04:40:19.981Z,91
2018-06-15T04:41:22.595Z,91
2018-06-15T04:42:24.855Z,92
2018-06-15T04:43:27.575Z,92
2018-06-15T04:44:29.972Z,92
2018-06-15T04:45:32.202Z,93
2018-06-15T04:46:34.351Z,92
2018-06-15T04:47:36.512Z,91
2018-06-15T04:48:38.624Z,91
2018-06-15T04:49:40.889Z,92
2018-06-15T04:50:43.048Z,93
2018-06-15T04:51:45.320Z,93
2018-06-15T04:52:47.536Z,91
2018-06-15T04:53:49.981Z,91
2018-06-15T04:54:51.997Z,91
2018-06-15T04:55:53.996Z,91
2018-06-15T04:56:55.993Z,91
2018-06-15T04:57:58.020Z,91
2018-06-15T04:59:00.184Z,90
2018-06-15T05:00:02.210Z,89
2018-06-15T05:01:04.279Z,89
2018-06-15T05:02:06.636Z,89
2018-06-15T05:03:08.965Z,90
2018-06-15T05:04:11.012Z,89
2018-06-15T05:05:13.043Z,90
2018-06-15T05:06:15.042Z,89
2018-06-15T05:07:17.074Z,89
2018-06-15T05:08:19.118Z,90
2018-06-15T05:09:21.629Z,89
2018-06-15T05:10:24.445Z,90
2018-06-15T05:11:27.518Z,89
2018-06-15T05:12:29.778Z,89
2018-06-15T05:13:32.225Z,89
2018-06-15T05:14:35.365Z,90
2018-06-15T05:15:37.685Z,90
2018-06-15T05:16:39.973Z,90
2018-06-15T05:17:42.152Z,88
2018-06-15T05:18:44.404Z,89
2018-06-15T05:19:48.257Z,88
2018-06-15T05:20:50.594Z,88
2018-06-15T05:21:54.131Z,89
2018-06-15T05:22:57.159Z,88
2018-06-15T05:23:59.551Z,89
2018-06-15T05:25:01.832Z,89
2018-06-15T05:26:03.833Z,90
2018-06-15T05:27:05.830Z,89
2018-06-15T05:28:07.861Z,89
2018-06-15T05:29:09.845Z,90
2018-06-15T05:30:12.232Z,89
2018-06-15T05:31:14.230Z,89
2018-06-15T05:32:16.226Z,88
2018-06-15T05:33:18.244Z,87
2018-06-15T05:34:20.634Z,87
2018-06-15T05:35:23.000Z,87
2018-06-15T05:36:24.947Z,87
2018-06-15T05:37:27.219Z,87
2018-06-15T05:38:29.615Z,86
2018-06-15T05:39:31.597Z,86
2018-06-15T05:40:33.990Z,87
2018-06-15T05:41:35.989Z,85
2018-06-15T05:42:38.004Z,85
2018-06-15T05:43:40.001Z,85
2018-06-15T05:44:42.009Z,85
2018-06-15T05:45:44.014Z,85
2018-06-15T05:46:46.024Z,85
2018-06-15T05:47:48.404Z,86
2018-06-15T05:48:50.409Z,84
2018-06-15T05:49:52.808Z,84
2018-06-15T05:50:55.134Z,84
2018-06-15T05:51:57.130Z,83
2018-06-15T05:52:59.513Z,84
2018-06-15T05:54:01.809Z,84
2018-06-15T05:55:03.815Z,84
2018-06-15T05:56:06.121Z,84
2018-06-15T05:57:08.125Z,84
2018-06-15T05:58:10.121Z,85
2018-06-15T05:59:12.124Z,85
2018-06-15T06:00:14.117Z,83
2018-06-15T06:01:16.425Z,83
2018-06-15T06:02:18.432Z,83
2018-06-15T06:03:20.423Z,83
2018-06-15T06:04:22.788Z,83
2018-06-15T06:05:24.790Z,83
2018-06-15T06:06:26.788Z,83
2018-06-15T06:07:28.789Z,82
2018-06-15T06:08:31.084Z,82
2018-06-15T06:09:33.092Z,82
2018-06-15T06:10:35.393Z,82
2018-06-15T06:11:37.705Z,82
2018-06-15T06:12:39.712Z,82
2018-06-15T06:13:41.715Z,82
2018-06-15T06:14:43.733Z,82
2018-06-15T06:15:45.743Z,81
2018-06-15T06:16:47.740Z,81
2018-06-15T06:17:50.023Z,81
2018-06-15T06:18:52.028Z,80
2018-06-15T06:19:54.022Z,79
2018-06-15T06:20:56.024Z,79
2018-06-15T06:21:58.030Z,80
2018-06-15T06:23:00.039Z,78
2018-06-15T06:24:02.039Z,78
2018-06-15T06:25:04.041Z,78
2018-06-15T06:26:06.334Z,79
2018-06-15T06:27:08.607Z,79
2018-06-15T06:28:10.612Z,78
2018-06-15T06:29:12.623Z,78
2018-06-15T06:30:14.630Z,79
2018-06-15T06:31:16.626Z,78
2018-06-15T06:32:18.629Z,78
2018-06-15T06:33:20.628Z,78
2018-06-15T06:34:22.637Z,79
2018-06-15T06:35:24.632Z,79
2018-06-15T06:36:26.652Z,77
2018-06-15T06:37:28.648Z,77
2018-06-15T06:38:30.647Z,77
2018-06-15T06:39:32.661Z,76
2018-06-15T06:40:34.662Z,76
2018-06-15T06:41:36.668Z,77
2018-06-15T06:42:38.670Z,76
2018-06-15T06:43:41.050Z,75
2018-06-15T06:44:43.338Z,75
2018-06-15T06:45:45.338Z,75
2018-06-15T06:46:47.339Z,75
2018-06-15T06:47:49.337Z,75
2018-06-15T06:48:51.355Z,75
2018-06-15T06:49:53.361Z,75
2018-06-15T06:50:55.357Z,75
2018-06-15T06:51:57.357Z,76
2018-06-15T06:52:59.367Z,75
2018-06-15T06:54:01.379Z,73
2018-06-15T06:55:03.379Z,72
2018-06-15T06:56:05.665Z,72
2018-06-15T06:57:07.665Z,72
2018-06-15T06:58:09.664Z,72
2018-06-15T06:59:11.667Z,73
2018-06-15T07:00:13.658Z,73
2018-06-15T07:01:15.661Z,73
2018-06-15T07:02:17.682Z,72
2018-06-15T07:03:19.673Z,73
2018-06-15T07:04:21.980Z,72
2018-06-15T07:05:23.991Z,71
2018-06-15T07:06:26.001Z,72
2018-06-15T07:07:27.998Z,72
2018-06-15T07:08:29.992Z,73
2018-06-15T07:09:32.004Z,72
2018-06-15T07:10:34.008Z,72
2018-06-15T07:11:36.293Z,71
2018-06-15T07:12:38.299Z,71
2018-06-15T07:13:40.314Z,70
2018-06-15T07:14:42.302Z,70
2018-06-15T07:15:44.314Z,70
2018-06-15T07:16:46.312Z,69
2018-06-15T07:17:48.318Z,68
2018-06-15T07:18:50.706Z,68
2018-06-15T07:19:52.695Z,69
2018-06-15T07:20:54.702Z,68
2018-06-15T07:21:56.703Z,68
2018-06-15T07:22:58.698Z,69
2018-06-15T07:24:00.719Z,69
2018-06-15T07:25:02.992Z,69
2018-06-15T07:26:04.990Z,69
2018-06-15T07:27:07.271Z,69
2018-06-15T07:28:09.268Z,69
2018-06-15T07:29:11.274Z,68
2018-06-15T07:30:13.287Z,68
2018-06-15T07:31:15.669Z,67
2018-06-15T07:32:17.682Z,68
2018-06-15T07:33:20.246Z,67
2018-06-15T07:34:22.256Z,67
2018-06-15T07:35:24.244Z,65
2018-06-15T07:36:26.252Z,64
2018-06-15T07:37:28.267Z,65
2018-06-15T07:38:30.651Z,64
2018-06-15T07:39:32.659Z,65
2018-06-15T07:40:35.047Z,66
2018-06-15T07:41:37.065Z,65
2018-06-15T07:42:39.074Z,65
2018-06-15T07:43:41.072Z,65
2018-06-15T07:44:43.366Z,65
2018-06-15T07:45:45.360Z,65
2018-06-15T07:46:47.367Z,65
2018-06-15T07:47:49.365Z,64
2018-06-15T07:48:51.370Z,65
2018-06-15T07:49:53.946Z,65
2018-06-15T07:50:55.943Z,65
2018-06-15T07:51:57.943Z,65
2018-06-15T07:52:59.948Z,66
2018-06-15T07:54:01.944Z,64
2018-06-15T07:55:04.227Z,63
2018-06-15T07:56:06.227Z,61
2018-06-15T07:57:08.242Z,61
2018-06-15T07:58:10.546Z,62
2018-06-15T07:59:12.545Z,62
2018-06-15T08:00:14.551Z,63
2018-06-15T08:01:16.559Z,63
2018-06-15T08:02:18.562Z,62
2018-06-15T08:03:20.568Z,62
2018-06-15T08:04:22.631Z,62
2018-06-15T08:05:24.924Z,62
2018-06-15T08:06:27.198Z,63
2018-06-15T08:07:29.209Z,61
2018-06-15T08:08:31.219Z,62
2018-06-15T08:09:33.230Z,62
2018-06-15T08:10:35.230Z,62
2018-06-15T08:11:37.225Z,62
2018-06-15T08:12:39.232Z,63
2018-06-15T08:13:41.242Z,61
2018-06-15T08:14:43.252Z,62
2018-06-15T08:15:45.287Z,62
2018-06-15T08:16:47.855Z,62
2018-06-15T08:17:49.860Z,62
2018-06-15T08:18:51.858Z,63
2018-06-15T08:19:53.866Z,64
2018-06-15T08:20:55.871Z,64
2018-06-15T08:21:57.878Z,62
2018-06-15T08:22:59.875Z,63
2018-06-15T08:24:01.882Z,62
2018-06-15T08:25:03.901Z,62
2018-06-15T08:26:05.894Z,63
2018-06-15T08:27:07.903Z,59
2018-06-15T08:28:09.907Z,59
2018-06-15T08:29:11.912Z,58
2018-06-15T08:30:13.907Z,57
2018-06-15T08:31:15.912Z,58
2018-06-15T08:32:18.229Z,59
2018-06-15T08:33:20.236Z,60
2018-06-15T08:34:22.254Z,58
2018-06-15T08:35:24.628Z,59
2018-06-15T08:36:26.635Z,59
2018-06-15T08:37:28.634Z,56
2018-06-15T08:38:30.636Z,57
2018-06-15T08:39:32.940Z,58
2018-06-15T08:40:34.941Z,58
2018-06-15T08:41:37.323Z,58
2018-06-15T08:42:39.713Z,60
2018-06-15T08:43:42.010Z,59
2018-06-15T08:44:44.328Z,61
2018-06-15T08:45:46.895Z,63
2018-06-15T08:46:48.902Z,62
2018-06-15T08:47:51.181Z,58
2018-06-15T08:48:53.203Z,56
2018-06-15T08:49:55.209Z,57
2018-06-15T08:50:57.491Z,56
2018-06-15T08:51:59.509Z,56
2018-06-15T08:53:01.514Z,56
2018-06-15T08:54:03.531Z,55
2018-06-15T08:55:05.815Z,55
2018-06-15T08:56:07.820Z,56
2018-06-15T08:57:09.847Z,56
2018-06-15T08:58:11.840Z,54
2018-06-15T08:59:13.851Z,53
2018-06-15T09:00:15.857Z,52
2018-06-15T09:01:17.867Z,50
2018-06-15T09:02:20.445Z,52
2018-06-15T09:03:22.450Z,52
2018-06-15T09:04:24.459Z,50
2018-06-15T09:05:26.469Z,51
2018-06-15T09:06:28.462Z,51
2018-06-15T09:07:30.487Z,53
2018-06-15T09:08:32.508Z,52
2018-06-15T09:09:34.513Z,52
2018-06-15T09:10:36.514Z,52
2018-06-15T09:11:38.528Z,52
2018-06-15T09:12:40.588Z,54
2018-06-15T09:13:42.870Z,50
2018-06-15T09:14:44.878Z,49
2018-06-15T09:15:47.162Z,50
2018-06-15T09:16:49.177Z,51
2018-06-15T09:17:51.224Z,50
2018-06-15T09:18:53.229Z,51
2018-06-15T09:19:55.635Z,51
2018-06-15T09:20:57.636Z,52
2018-06-15T09:21:59.658Z,50
2018-06-15T09:23:01.668Z,48
2018-06-15T09:24:03.959Z,48
2018-06-15T09:25:05.997Z,49
2018-06-15T09:26:07.997Z,49
2018-06-15T09:27:10.283Z,51
2018-06-15T09:28:12.302Z,52
2018-06-15T09:29:14.312Z,54
2018-06-15T09:30:16.349Z,53
2018-06-15T09:31:18.342Z,53
2018-06-15T09:32:20.347Z,54
2018-06-15T09:33:22.667Z,53
2018-06-15T09:34:24.980Z,55
2018-06-15T09:35:27.409Z,52
2018-06-15T09:36:29.518Z,52
2018-06-15T09:37:31.676Z,51
2018-06-15T09:38:33.722Z,51
2018-06-15T09:39:35.762Z,49
2018-06-15T09:40:37.843Z,49
2018-06-15T09:41:39.906Z,49
2018-06-15T09:42:41.919Z,50
2018-06-15T09:43:44.395Z,46
2018-06-15T09:44:46.434Z,46
2018-06-15T09:45:48.779Z,47
2018-06-15T09:46:50.847Z,48
2018-06-15T09:47:53.150Z,49
2018-06-15T09:48:55.270Z,48
2018-06-15T09:49:57.577Z,50
2018-06-15T09:51:00.316Z,51
2018-06-15T09:52:02.333Z,49
2018-06-15T09:53:04.427Z,50
2018-06-15T09:54:06.462Z,48
2018-06-15T09:55:08.479Z,49
2018-06-15T09:56:10.624Z,48
2018-06-15T09:57:12.620Z,49
2018-06-15T09:58:14.956Z,50
2018-06-15T09:59:16.957Z,48
2018-06-15T10:00:18.998Z,49
2018-06-15T10:01:21.004Z,47
2018-06-15T10:02:23.003Z,48
2018-06-15T10:03:25.033Z,49
2018-06-15T10:04:27.344Z,49
2018-06-15T10:05:29.381Z,48
2018-06-15T10:06:31.475Z,48
2018-06-15T10:07:33.480Z,46
2018-06-15T10:08:35.495Z,46
2018-06-15T10:09:37.507Z,47
2018-06-15T10:10:39.521Z,49
2018-06-15T10:11:41.553Z,47
2018-06-15T10:12:43.859Z,47
2018-06-15T10:13:45.884Z,49
2018-06-15T10:14:48.272Z,49
2018-06-15T10:15:50.660Z,50
2018-06-15T10:16:52.680Z,47
2018-06-15T10:17:54.691Z,48
2018-06-15T10:18:56.807Z,46
2018-06-15T10:19:58.821Z,46
2018-06-15T10:21:00.848Z,47
2018-06-15T10:22:02.981Z,44
2018-06-15T10:23:04.981Z,44
2018-06-15T10:24:06.995Z,46
2018-06-15T10:25:09.281Z,44
2018-06-15T10:26:11.276Z,46
2018-06-15T10:27:13.721Z,48
2018-06-15T10:28:16.055Z,48
2018-06-15T10:29:18.063Z,48
2018-06-15T10:30:20.465Z,49
2018-06-15T10:31:22.471Z,49
2018-06-15T10:32:24.482Z,49
2018-06-15T10:33:26.484Z,48
2018-06-15T10:34:28.498Z,47
2018-06-15T10:35:30.518Z,47
2018-06-15T10:36:32.527Z,48
2018-06-15T10:37:34.529Z,48
2018-06-15T10:38:36.533Z,48
2018-06-15T10:39:38.576Z,43
2018-06-15T10:40:40.559Z,42
2018-06-15T10:41:42.560Z,41
2018-06-15T10:42:44.570Z,43
2018-06-15T10:43:46.582Z,43
2018-06-15T10:44:48.577Z,43
2018-06-15T10:45:50.901Z,42
2018-06-15T10:46:52.910Z,42
2018-06-15T10:47:54.929Z,45
2018-06-15T10:48:56.942Z,46
2018-06-15T10:49:58.955Z,46
2018-06-15T10:51:01.248Z,46
2018-06-15T10:52:03.254Z,46
2018-06-15T10:53:05.554Z,45
2018-06-15T10:54:07.582Z,42
2018-06-15T10:55:09.594Z,43
2018-06-15T10:56:12.039Z,43
2018-06-15T10:57:14.003Z,45
2018-06-15T10:58:16.011Z,45
2018-06-15T10:59:18.031Z,43
2018-06-15T11:00:20.041Z,43
2018-06-15T11:01:22.058Z,42
2018-06-15T11:02:24.418Z,44
2018-06-15T11:03:26.769Z,42
2018-06-15T11:04:29.064Z,41
2018-06-15T11:05:31.072Z,39
2018-06-15T11:06:33.090Z,39
2018-06-15T11:07:35.099Z,40
2018-06-15T11:08:37.143Z,38
2018-06-15T11:09:39.127Z,38
2018-06-15T11:10:41.140Z,40
2018-06-15T11:11:43.169Z,39
2018-06-15T11:12:45.757Z,41
2018-06-15T11:13:47.796Z,41
2018-06-15T11:14:49.807Z,44
2018-06-15T11:15:51.817Z,42
2018-06-15T11:16:54.112Z,40
2018-06-15T11:17:56.130Z,40
2018-06-15T11:18:58.146Z,40
2018-06-15T11:20:00.435Z,39
2018-06-15T11:21:03.109Z,38
2018-06-15T11:22:05.410Z,41
2018-06-15T11:23:07.423Z,41
2018-06-15T11:24:09.718Z,40
2018-06-15T11:25:12.017Z,41
2018-06-15T11:26:14.036Z,40
2018-06-15T11:27:16.046Z,43
2018-06-15T11:28:18.057Z,39
2018-06-15T11:29:20.071Z,40
2018-06-15T11:30:22.095Z,41
2018-06-15T11:31:24.106Z,42
2018-06-15T11:32:26.112Z,40
2018-06-15T11:33:28.810Z,40
2018-06-15T11:34:30.828Z,41
2018-06-15T11:35:33.224Z,40
2018-06-15T11:36:35.518Z,41
2018-06-15T11:37:37.530Z,39
2018-06-15T11:38:39.537Z,40
2018-06-15T11:39:41.546Z,42
2018-06-15T11:40:43.557Z,40
2018-06-15T11:41:45.585Z,40
2018-06-15T11:42:47.595Z,40
2018-06-15T11:43:49.608Z,39
2018-06-15T11:44:51.904Z,41
2018-06-15T11:45:53.928Z,40
2018-06-15T11:46:55.945Z,40
2018-06-15T11:47:57.944Z,40
2018-06-15T11:49:00.358Z,40
2018-06-15T11:50:02.368Z,39
2018-06-15T11:51:04.368Z,40
2018-06-15T11:52:06.381Z,40
2018-06-15T11:53:08.773Z,38
2018-06-15T11:54:10.790Z,38
2018-06-15T11:55:12.801Z,38
2018-06-15T11:56:14.869Z,37
2018-06-15T11:57:16.825Z,37
2018-06-15T11:58:19.129Z,38
2018-06-15T11:59:21.148Z,37
2018-06-15T12:00:23.155Z,35
2018-06-15T12:01:25.177Z,35
2018-06-15T12:02:27.195Z,36
2018-06-15T12:03:29.207Z,37
2018-06-15T12:04:31.227Z,37
2018-06-15T12:05:33.247Z,36
2018-06-15T12:06:35.268Z,36
2018-06-15T12:07:37.872Z,37
2018-06-15T12:08:39.886Z,36
2018-06-15T12:09:41.907Z,35
2018-06-15T12:10:43.920Z,35
2018-06-15T12:11:45.939Z,36
2018-06-15T12:12:47.942Z,36
2018-06-15T12:13:49.959Z,37
2018-06-15T12:14:51.973Z,36
2018-06-15T12:15:53.982Z,38
2018-06-15T12:16:56.000Z,38
2018-06-15T12:17:58.025Z,37
2018-06-15T12:19:00.038Z,35
2018-06-15T12:20:02.064Z,35
2018-06-15T12:21:04.354Z,38
2018-06-15T12:22:06.386Z,37
2018-06-15T12:23:08.388Z,36
2018-06-15T12:24:10.400Z,36
2018-06-15T12:25:12.803Z,37
2018-06-15T12:26:15.202Z,37
2018-06-15T12:27:17.223Z,37
2018-06-15T12:28:19.528Z,38
2018-06-15T12:29:21.934Z,37
2018-06-15T12:30:23.955Z,38
2018-06-15T12:31:25.953Z,37
2018-06-15T12:32:28.365Z,37
2018-06-15T12:33:30.377Z,36
2018-06-15T12:34:32.404Z,37
2018-06-15T12:35:34.426Z,35
2018-06-15T12:36:36.720Z,36
2018-06-15T12:37:38.728Z,37
2018-06-15T12:38:40.744Z,37
2018-06-15T12:39:43.046Z,38
2018-06-15T12:40:45.045Z,36
2018-06-15T12:41:47.068Z,37
2018-06-15T12:42:49.094Z,37
2018-06-15T12:43:51.115Z,37
2018-06-15T12:44:53.121Z,36
2018-06-15T12:45:55.763Z,38
2018-06-15T12:46:57.706Z,37
2018-06-15T12:47:59.734Z,38
2018-06-15T12:49:01.751Z,37
2018-06-15T12:50:04.345Z,37
2018-06-15T12:51:06.364Z,38
2018-06-15T12:52:08.378Z,38
2018-06-15T12:53:10.391Z,38
2018-06-15T12:54:12.418Z,38
2018-06-15T12:55:14.423Z,38
2018-06-15T12:56:16.449Z,36
2018-06-15T12:57:18.459Z,37
2018-06-15T12:58:20.471Z,39
2018-06-15T12:59:22.488Z,39
2018-06-15T13:00:24.501Z,38
2018-06-15T13:01:26.801Z,38
2018-06-15T13:02:29.209Z,39
2018-06-15T13:03:31.212Z,38
2018-06-15T13:04:33.522Z,40
2018-06-15T13:05:35.820Z,40
2018-06-15T13:06:37.834Z,38
2018-06-15T13:07:40.241Z,40
2018-06-15T13:08:42.252Z,39
2018-06-15T13:09:44.274Z,39
2018-06-15T13:10:46.292Z,38
2018-06-15T13:11:48.570Z,40
2018-06-15T13:12:50.981Z,40
2018-06-15T13:13:53.009Z,41
2018-06-15T13:14:55.029Z,39
2018-06-15T13:15:57.432Z,40
2018-06-15T13:16:59.443Z,39
2018-06-15T13:18:02.429Z,39
2018-06-15T13:19:04.450Z,40
2018-06-15T13:20:06.478Z,40
2018-06-15T13:21:08.479Z,39
2018-06-15T13:22:10.499Z,38
2018-06-15T13:23:12.515Z,39
2018-06-15T13:24:14.964Z,39
2018-06-15T13:25:17.912Z,40
2018-06-15T13:26:19.935Z,39
2018-06-15T13:27:22.235Z,39
2018-06-15T13:28:24.520Z,41
2018-06-15T13:29:26.529Z,40
2018-06-15T13:30:28.941Z,41
2018-06-15T13:31:30.955Z,41
2018-06-15T13:32:33.354Z,41
2018-06-15T13:33:35.471Z,40
2018-06-15T13:34:39.081Z,39
2018-06-15T13:35:41.309Z,39
2018-06-15T13:36:44.679Z,40
2018-06-15T13:37:48.992Z,40
2018-06-15T13:38:52.351Z,39
2018-06-15T13:39:54.769Z,39
2018-06-15T13:41:00.846Z,39
2018-06-15T13:42:03.203Z,40
2018-06-15T13:43:05.222Z,40
2018-06-15T13:44:07.235Z,40
2018-06-15T13:45:09.261Z,40
2018-06-15T13:46:11.295Z,40
2018-06-15T13:47:13.574Z,41
2018-06-15T13:48:15.599Z,41
2018-06-15T13:49:18.215Z,41
2018-06-15T13:50:20.403Z,41
2018-06-15T13:51:22.426Z,41
2018-06-15T13:52:24.445Z,42
2018-06-15T13:53:26.465Z,43
2018-06-15T13:54:28.493Z,41
2018-06-15T13:55:30.505Z,41
2018-06-15T13:56:32.521Z,40
2018-06-15T13:57:34.536Z,41
2018-06-15T13:58:36.546Z,40
2018-06-15T13:59:38.567Z,40
2018-06-15T14:00:40.577Z,41
2018-06-15T14:01:42.596Z,41
2018-06-15T14:02:44.999Z,40
2018-06-15T14:03:47.020Z,40
2018-06-15T14:04:49.044Z,39
2018-06-15T14:05:51.063Z,37
2018-06-15T14:06:53.357Z,37
2018-06-15T14:07:55.378Z,38
2018-06-15T14:08:57.383Z,38
2018-06-15T14:09:59.410Z,37
2018-06-15T14:11:01.427Z,37
2018-06-15T14:12:03.456Z,37
2018-06-15T14:13:05.472Z,37
2018-06-15T14:14:07.498Z,37
2018-06-15T14:15:09.513Z,36
2018-06-15T14:16:11.806Z,38
2018-06-15T14:17:13.853Z,37
2018-06-15T14:18:15.879Z,38
2018-06-15T14:19:18.185Z,39
2018-06-15T14:20:20.222Z,38
2018-06-15T14:21:22.231Z,38
2018-06-15T14:22:24.604Z,39
2018-06-15T14:23:26.616Z,40
2018-06-15T14:24:28.636Z,39
2018-06-15T14:25:30.653Z,39
2018-06-15T14:26:32.678Z,37
2018-06-15T14:27:34.689Z,37
2018-06-15T14:28:36.714Z,37
2018-06-15T14:29:38.732Z,37
2018-06-15T14:30:40.759Z,39
2018-06-15T14:31:43.060Z,38
2018-06-15T14:32:45.389Z,38
2018-06-15T14:33:47.767Z,37
2018-06-15T14:34:49.789Z,38
2018-06-15T14:35:52.116Z,38
2018-06-15T14:36:54.411Z,39
2018-06-15T14:37:56.729Z,39
2018-06-15T14:38:58.746Z,40
2018-06-15T14:40:00.770Z,40
2018-06-15T14:41:02.783Z,39
2018-06-15T14:42:05.093Z,39
2018-06-15T14:43:07.099Z,39
2018-06-15T14:44:09.122Z,39
2018-06-15T14:45:11.137Z,38
2018-06-15T14:46:13.161Z,37
2018-06-15T14:47:15.181Z,38